sensor_id;sensor_type;location;lat;lon;timestamp;pressure;altitude;pressure_sealevel;temperature;humidity
60719;BME280;46567;51.660;5.824;2023-05-01T00:00:51;129990.0;;;181.2;73.0
60719;BME280;46567;51.660;5.824;2023-05-01T00:05:57;129850.0;;;180.2;73.5
60719;BME280;46567;51.660;5.824;2023-05-01T00:10:51;129980.0;;;181.1;73.5
60719;BME280;46567;51.660;5.824;2023-05-01T00:15:51;129950.0;;;181.0;74.0
60719;BME280;46567;51.660;5.824;2023-05-01T00:20:51;129940.0;;;180.9;74.0
60719;BME280;46567;51.660;5.824;2023-05-01T00:25:51;130030.0;;;181.6;73.5
60719;BME280;46567;51.660;5.824;2023-05-01T00:30:51;130130.0;;;182.4;73.0
60719;BME280;46567;51.660;5.824;2023-05-01T00:35:51;130080.0;;;182.2;72.5
60719;BME280;46567;51.660;5.824;2023-05-01T00:40:51;130050.0;;;182.0;72.5
60719;BME280;46567;51.660;5.824;2023-05-01T00:45:51;130070.0;;;182.3;72.0
60719;BME280;46567;51.660;5.824;2023-05-01T00:50:51;130110.0;;;182.7;72.0
60719;BME280;46567;51.660;5.824;2023-05-01T00:55:52;130210.0;;;183.5;72.0
60719;BME280;46567;51.660;5.824;2023-05-01T01:00:51;130190.0;;;183.3;72.0
60719;BME280;46567;51.660;5.824;2023-05-01T01:05:56;130280.0;;;183.9;72.5
60719;BME280;46567;51.660;5.824;2023-05-01T01:11:00;130160.0;;;183.1;72.0
60719;BME280;46567;51.660;5.824;2023-05-01T01:16:07;130150.0;;;183.1;72.5
60719;BME280;46567;51.660;5.824;2023-05-01T01:21:26;130190.0;;;183.3;72.5
60719;BME280;46567;51.660;5.824;2023-05-01T01:27:17;130210.0;;;183.5;72.0
60719;BME280;46567;51.660;5.824;2023-05-01T01:33:44;130270.0;;;183.9;72.0
60719;BME280;46567;51.660;5.824;2023-05-01T01:36:07;130260.0;;;183.9;72.0
60719;BME280;46567;51.660;5.824;2023-05-01T01:41:08;130440.0;;;185.0;72.0
60719;BME280;46567;51.660;5.824;2023-05-01T01:45:59;130510.0;;;185.5;72.0
60719;BME280;46567;51.660;5.824;2023-05-01T01:50:52;130550.0;;;185.8;72.0
60719;BME280;46567;51.660;5.824;2023-05-01T01:55:53;130760.0;;;187.2;72.0
60719;BME280;46567;51.660;5.824;2023-05-01T02:00:52;130500.0;;;185.6;72.0
60719;BME280;46567;51.660;5.824;2023-05-01T02:05:53;130610.0;;;186.3;72.0
60719;BME280;46567;51.660;5.824;2023-05-01T02:10:52;130790.0;;;187.5;72.5
60719;BME280;46567;51.660;5.824;2023-05-01T02:15:51;130470.0;;;185.5;72.5
60719;BME280;46567;51.660;5.824;2023-05-01T02:20:52;130790.0;;;187.7;72.5
60719;BME280;46567;51.660;5.824;2023-05-01T02:25:51;130700.0;;;187.0;73.0
60719;BME280;46567;51.660;5.824;2023-05-01T02:30:51;130930.0;;;188.3;74.0
60719;BME280;46567;51.660;5.824;2023-05-01T02:35:51;130730.0;;;187.0;74.0
60719;BME280;46567;51.660;5.824;2023-05-01T02:40:55;130900.0;;;188.0;74.0
60719;BME280;46567;51.660;5.824;2023-05-01T02:45:53;130720.0;;;186.7;74.5
60719;BME280;46567;51.660;5.824;2023-05-01T02:50:52;130660.0;;;186.5;74.5
60719;BME280;46567;51.660;5.824;2023-05-01T02:55:51;130810.0;;;187.5;74.5
60719;BME280;46567;51.660;5.824;2023-05-01T03:00:51;130740.0;;;187.1;75.0
60719;BME280;46567;51.660;5.824;2023-05-01T03:05:51;130800.0;;;187.4;75.0
60719;BME280;46567;51.660;5.824;2023-05-01T03:10:51;130790.0;;;187.3;75.5
60719;BME280;46567;51.660;5.824;2023-05-01T03:15:51;130700.0;;;186.8;75.5
60719;BME280;46567;51.660;5.824;2023-05-01T03:20:51;130760.0;;;187.3;75.0
60719;BME280;46567;51.660;5.824;2023-05-01T03:25:51;130740.0;;;187.2;75.0
60719;BME280;46567;51.660;5.824;2023-05-01T03:30:52;130660.0;;;186.5;76.0
60719;BME280;46567;51.660;5.824;2023-05-01T03:35:58;130710.0;;;186.8;78.0
60719;BME280;46567;51.660;5.824;2023-05-01T03:40:51;130630.0;;;186.0;78.0
60719;BME280;46567;51.660;5.824;2023-05-01T03:45:51;130680.0;;;186.3;79.5
60719;BME280;46567;51.660;5.824;2023-05-01T03:50:51;130700.0;;;186.2;79.5
60719;BME280;46567;51.660;5.824;2023-05-01T03:55:51;130970.0;;;188.0;79.0
60719;BME280;46567;51.660;5.824;2023-05-01T04:00:53;130990.0;;;188.3;79.0
60719;BME280;46567;51.660;5.824;2023-05-01T04:05:51;131160.0;;;189.5;78.5
60719;BME280;46567;51.660;5.824;2023-05-01T04:10:51;131090.0;;;189.0;79.0
60719;BME280;46567;51.660;5.824;2023-05-01T04:15:51;131320.0;;;190.6;78.5
60719;BME280;46567;51.660;5.824;2023-05-01T04:20:51;131330.0;;;190.6;78.5
60719;BME280;46567;51.660;5.824;2023-05-01T04:25:51;131320.0;;;190.6;78.5
60719;BME280;46567;51.660;5.824;2023-05-01T04:30:51;131310.0;;;190.5;79.0
60719;BME280;46567;51.660;5.824;2023-05-01T04:35:51;131290.0;;;190.3;79.0
60719;BME280;46567;51.660;5.824;2023-05-01T04:40:51;131310.0;;;190.5;79.0
60719;BME280;46567;51.660;5.824;2023-05-01T04:45:51;131140.0;;;189.5;79.0
60719;BME280;46567;51.660;5.824;2023-05-01T04:50:51;131160.0;;;189.6;79.0
60719;BME280;46567;51.660;5.824;2023-05-01T04:55:51;131280.0;;;190.6;79.0
60719;BME280;46567;51.660;5.824;2023-05-01T05:00:51;131080.0;;;189.3;79.0
60719;BME280;46567;51.660;5.824;2023-05-01T05:05:51;131120.0;;;189.6;79.0
60719;BME280;46567;51.660;5.824;2023-05-01T05:10:54;131090.0;;;189.4;79.0
60719;BME280;46567;51.660;5.824;2023-05-01T05:15:51;131100.0;;;189.4;79.5
60719;BME280;46567;51.660;5.824;2023-05-01T05:20:51;131160.0;;;189.9;79.5
60719;BME280;46567;51.660;5.824;2023-05-01T05:25:51;131180.0;;;190.0;80.0
60719;BME280;46567;51.660;5.824;2023-05-01T05:30:51;131200.0;;;190.0;80.5
60719;BME280;46567;51.660;5.824;2023-05-01T05:35:51;131220.0;;;190.4;80.0
60719;BME280;46567;51.660;5.824;2023-05-01T05:40:51;131220.0;;;190.6;80.5
60719;BME280;46567;51.660;5.824;2023-05-01T05:45:55;131170.0;;;190.6;79.5
60719;BME280;46567;51.660;5.824;2023-05-01T05:50:51;131170.0;;;190.6;79.0
60719;BME280;46567;51.660;5.824;2023-05-01T05:55:51;131140.0;;;190.6;78.5
60719;BME280;46567;51.660;5.824;2023-05-01T06:00:51;131130.0;;;190.6;78.0
60719;BME280;46567;51.660;5.824;2023-05-01T06:05:51;131100.0;;;190.5;77.5
60719;BME280;46567;51.660;5.824;2023-05-01T06:10:51;131100.0;;;190.6;77.5
60719;BME280;46567;51.660;5.824;2023-05-01T06:15:51;131100.0;;;190.6;78.0
60719;BME280;46567;51.660;5.824;2023-05-01T06:20:51;131070.0;;;190.6;77.5
60719;BME280;46567;51.660;5.824;2023-05-01T06:25:51;131050.0;;;190.6;77.5
60719;BME280;46567;51.660;5.824;2023-05-01T06:30:51;131030.0;;;190.6;77.5
60719;BME280;46567;51.660;5.824;2023-05-01T06:35:51;131010.0;;;190.6;76.5
60719;BME280;46567;51.660;5.824;2023-05-01T06:40:51;130980.0;;;190.6;76.5
60719;BME280;46567;51.660;5.824;2023-05-01T06:45:51;130910.0;;;190.6;75.5
60719;BME280;46567;51.660;5.824;2023-05-01T06:50:51;130900.0;;;190.6;75.5
60719;BME280;46567;51.660;5.824;2023-05-01T06:55:51;130850.0;;;190.6;75.0
60719;BME280;46567;51.660;5.824;2023-05-01T07:00:52;130790.0;;;190.6;74.5
60719;BME280;46567;51.660;5.824;2023-05-01T07:05:51;130750.0;;;190.6;73.5
60719;BME280;46567;51.660;5.824;2023-05-01T07:10:51;130740.0;;;190.6;73.5
60719;BME280;46567;51.660;5.824;2023-05-01T07:15:51;130680.0;;;190.6;73.5
60719;BME280;46567;51.660;5.824;2023-05-01T07:20:51;130650.0;;;190.6;72.0
60719;BME280;46567;51.660;5.824;2023-05-01T07:25:51;130610.0;;;190.6;72.0
60719;BME280;46567;51.660;5.824;2023-05-01T07:30:51;130610.0;;;190.6;71.0
60719;BME280;46567;51.660;5.824;2023-05-01T07:35:51;130620.0;;;190.6;71.5
60719;BME280;46567;51.660;5.824;2023-05-01T07:40:51;130600.0;;;190.6;71.0
60719;BME280;46567;51.660;5.824;2023-05-01T07:45:55;130580.0;;;190.6;70.5
60719;BME280;46567;51.660;5.824;2023-05-01T07:50:51;130550.0;;;190.6;69.0
60719;BME280;46567;51.660;5.824;2023-05-01T07:55:51;130530.0;;;190.6;68.5
60719;BME280;46567;51.660;5.824;2023-05-01T08:00:51;130530.0;;;190.6;69.0
60719;BME280;46567;51.660;5.824;2023-05-01T08:05:51;130470.0;;;190.6;70.0
60719;BME280;46567;51.660;5.824;2023-05-01T08:10:51;130380.0;;;190.6;69.0
60719;BME280;46567;51.660;5.824;2023-05-01T08:15:51;130350.0;;;190.6;68.0
60719;BME280;46567;51.660;5.824;2023-05-01T08:20:51;130310.0;;;190.6;67.0
60719;BME280;46567;51.660;5.824;2023-05-01T08:25:51;130300.0;;;190.6;65.5
60719;BME280;46567;51.660;5.824;2023-05-01T08:30:51;130280.0;;;190.6;64.0
60719;BME280;46567;51.660;5.824;2023-05-01T08:35:51;130240.0;;;190.6;65.5
60719;BME280;46567;51.660;5.824;2023-05-01T08:40:53;130150.0;;;190.6;64.0
60719;BME280;46567;51.660;5.824;2023-05-01T08:45:52;130120.0;;;190.6;63.5
60719;BME280;46567;51.660;5.824;2023-05-01T08:50:53;130060.0;;;190.6;64.0
60719;BME280;46567;51.660;5.824;2023-05-01T08:55:52;129970.0;;;190.6;62.5
60719;BME280;46567;51.660;5.824;2023-05-01T09:00:51;129870.0;;;190.6;63.0
60719;BME280;46567;51.660;5.824;2023-05-01T09:05:52;129760.0;;;190.6;61.0
60719;BME280;46567;51.660;5.824;2023-05-01T09:10:55;129690.0;;;190.6;55.0
60719;BME280;46567;51.660;5.824;2023-05-01T09:15:51;129680.0;;;190.6;56.5
60719;BME280;46567;51.660;5.824;2023-05-01T09:20:52;129660.0;;;190.6;55.0
60719;BME280;46567;51.660;5.824;2023-05-01T09:25:52;129680.0;;;190.6;56.5
60719;BME280;46567;51.660;5.824;2023-05-01T09:30:51;129660.0;;;190.6;55.5
60719;BME280;46567;51.660;5.824;2023-05-01T09:35:56;129620.0;;;190.6;55.0
60719;BME280;46567;51.660;5.824;2023-05-01T09:40:52;129640.0;;;190.6;54.0
60719;BME280;46567;51.660;5.824;2023-05-01T09:46:00;129630.0;;;190.6;52.5
60719;BME280;46567;51.660;5.824;2023-05-01T09:50:51;129560.0;;;190.6;55.5
60719;BME280;46567;51.660;5.824;2023-05-01T09:56:00;129500.0;;;190.6;54.5
60719;BME280;46567;51.660;5.824;2023-05-01T10:00:51;129470.0;;;190.6;51.5
60719;BME280;46567;51.660;5.824;2023-05-01T10:05:51;129470.0;;;190.6;52.0
60719;BME280;46567;51.660;5.824;2023-05-01T10:10:59;129430.0;;;190.6;51.0
60719;BME280;46567;51.660;5.824;2023-05-01T10:15:51;129360.0;;;190.6;50.5
60719;BME280;46567;51.660;5.824;2023-05-01T10:20:51;129350.0;;;190.6;48.5
60719;BME280;46567;51.660;5.824;2023-05-01T10:25:52;129300.0;;;190.6;49.0
60719;BME280;46567;51.660;5.824;2023-05-01T10:30:52;129250.0;;;190.6;47.5
60719;BME280;46567;51.660;5.824;2023-05-01T10:35:55;129260.0;;;190.6;45.5
60719;BME280;46567;51.660;5.824;2023-05-01T10:45:52;129270.0;;;190.6;45.5
60719;BME280;46567;51.660;5.824;2023-05-01T10:51:18;129220.0;;;190.6;47.0
60719;BME280;46567;51.660;5.824;2023-05-01T10:55:51;129110.0;;;190.6;45.5
60719;BME280;46567;51.660;5.824;2023-05-01T11:01:32;129070.0;;;190.6;42.5
60719;BME280;46567;51.660;5.824;2023-05-01T11:06:05;129040.0;;;190.6;43.0
60719;BME280;46567;51.660;5.824;2023-05-01T11:10:51;128950.0;;;190.6;43.5
60719;BME280;46567;51.660;5.824;2023-05-01T11:15:51;128810.0;;;190.6;44.0
60719;BME280;46567;51.660;5.824;2023-05-01T11:20:51;128780.0;;;190.6;41.0
60719;BME280;46567;51.660;5.824;2023-05-01T11:26:07;128780.0;;;190.6;42.5
60719;BME280;46567;51.660;5.824;2023-05-01T11:30:52;128780.0;;;190.6;41.5
60719;BME280;46567;51.660;5.824;2023-05-01T11:35:59;128770.0;;;190.6;42.5
60719;BME280;46567;51.660;5.824;2023-05-01T11:40:53;128790.0;;;190.6;42.0
60719;BME280;46567;51.660;5.824;2023-05-01T11:45:53;128860.0;;;190.6;43.0
60719;BME280;46567;51.660;5.824;2023-05-01T11:50:51;128880.0;;;190.6;43.5
60719;BME280;46567;51.660;5.824;2023-05-01T11:55:51;128920.0;;;190.6;43.5
60719;BME280;46567;51.660;5.824;2023-05-01T12:00:51;128970.0;;;190.6;42.5
60719;BME280;46567;51.660;5.824;2023-05-01T12:05:51;129030.0;;;190.6;44.5
60719;BME280;46567;51.660;5.824;2023-05-01T12:10:52;129010.0;;;190.6;45.0
60719;BME280;46567;51.660;5.824;2023-05-01T12:15:52;128990.0;;;190.6;44.0
60719;BME280;46567;51.660;5.824;2023-05-01T12:20:53;129080.0;;;190.6;43.0
60719;BME280;46567;51.660;5.824;2023-05-01T12:25:51;129080.0;;;190.6;45.5
60719;BME280;46567;51.660;5.824;2023-05-01T12:30:51;129070.0;;;190.6;43.5
60719;BME280;46567;51.660;5.824;2023-05-01T12:35:51;129070.0;;;190.6;44.5
60719;BME280;46567;51.660;5.824;2023-05-01T12:40:54;129090.0;;;190.6;45.5
60719;BME280;46567;51.660;5.824;2023-05-01T12:45:51;129130.0;;;190.6;47.0
60719;BME280;46567;51.660;5.824;2023-05-01T12:50:51;129130.0;;;190.6;47.0
60719;BME280;46567;51.660;5.824;2023-05-01T12:55:53;129170.0;;;190.6;45.0
60719;BME280;46567;51.660;5.824;2023-05-01T13:00:52;129200.0;;;190.6;43.5
60719;BME280;46567;51.660;5.824;2023-05-01T13:05:52;129200.0;;;190.6;44.5
60719;BME280;46567;51.660;5.824;2023-05-01T13:10:52;129210.0;;;190.6;44.5
60719;BME280;46567;51.660;5.824;2023-05-01T13:15:52;129210.0;;;190.6;43.5
60719;BME280;46567;51.660;5.824;2023-05-01T13:20:53;129230.0;;;190.6;42.5
60719;BME280;46567;51.660;5.824;2023-05-01T13:25:54;129180.0;;;190.6;42.0
60719;BME280;46567;51.660;5.824;2023-05-01T13:30:51;129160.0;;;190.6;42.5
60719;BME280;46567;51.660;5.824;2023-05-01T13:35:51;129170.0;;;190.6;40.5
60719;BME280;46567;51.660;5.824;2023-05-01T13:40:51;129150.0;;;190.6;41.5
60719;BME280;46567;51.660;5.824;2023-05-01T13:45:56;129120.0;;;190.6;39.5
60719;BME280;46567;51.660;5.824;2023-05-01T13:50:51;129120.0;;;190.6;41.0
60719;BME280;46567;51.660;5.824;2023-05-01T13:55:51;129110.0;;;190.6;41.0
60719;BME280;46567;51.660;5.824;2023-05-01T14:00:51;129120.0;;;190.6;42.0
60719;BME280;46567;51.660;5.824;2023-05-01T14:05:51;129130.0;;;190.6;42.5
60719;BME280;46567;51.660;5.824;2023-05-01T14:10:51;129110.0;;;190.6;41.5
60719;BME280;46567;51.660;5.824;2023-05-01T14:15:51;129080.0;;;190.6;40.0
60719;BME280;46567;51.660;5.824;2023-05-01T14:20:51;129110.0;;;190.6;40.0
60719;BME280;46567;51.660;5.824;2023-05-01T14:25:52;129100.0;;;190.6;40.5
60719;BME280;46567;51.660;5.824;2023-05-01T14:30:51;129090.0;;;190.6;41.0
60719;BME280;46567;51.660;5.824;2023-05-01T14:35:52;129080.0;;;190.6;40.5
60719;BME280;46567;51.660;5.824;2023-05-01T14:40:51;129100.0;;;190.6;38.5
60719;BME280;46567;51.660;5.824;2023-05-01T14:45:53;129190.0;;;190.6;38.5
60719;BME280;46567;51.660;5.824;2023-05-01T14:50:51;129300.0;;;190.6;39.0
60719;BME280;46567;51.660;5.824;2023-05-01T14:55:51;129410.0;;;190.6;40.0
60719;BME280;46567;51.660;5.824;2023-05-01T15:00:51;129490.0;;;190.6;41.5
60719;BME280;46567;51.660;5.824;2023-05-01T15:05:51;129570.0;;;190.6;43.5
60719;BME280;46567;51.660;5.824;2023-05-01T15:10:51;129650.0;;;190.6;46.0
60719;BME280;46567;51.660;5.824;2023-05-01T15:15:51;129700.0;;;190.6;48.5
60719;BME280;46567;51.660;5.824;2023-05-01T15:20:51;129710.0;;;190.6;49.5
60719;BME280;46567;51.660;5.824;2023-05-01T15:25:51;129770.0;;;190.6;51.0
60719;BME280;46567;51.660;5.824;2023-05-01T15:30:51;129810.0;;;190.6;52.0
60719;BME280;46567;51.660;5.824;2023-05-01T15:35:51;129830.0;;;190.6;52.0
60719;BME280;46567;51.660;5.824;2023-05-01T15:40:51;129860.0;;;190.6;53.5
60719;BME280;46567;51.660;5.824;2023-05-01T15:45:51;129890.0;;;190.6;53.0
60719;BME280;46567;51.660;5.824;2023-05-01T15:50:51;129910.0;;;190.6;53.0
60719;BME280;46567;51.660;5.824;2023-05-01T15:55:54;129950.0;;;190.6;51.5
60719;BME280;46567;51.660;5.824;2023-05-01T16:00:51;129990.0;;;190.6;52.0
60719;BME280;46567;51.660;5.824;2023-05-01T16:05:51;130020.0;;;190.6;52.5
60719;BME280;46567;51.660;5.824;2023-05-01T16:10:51;130040.0;;;190.6;53.0
60719;BME280;46567;51.660;5.824;2023-05-01T16:15:51;130030.0;;;190.6;53.0
60719;BME280;46567;51.660;5.824;2023-05-01T16:20:51;129930.0;;;190.6;53.5
60719;BME280;46567;51.660;5.824;2023-05-01T16:25:51;129790.0;;;190.6;53.5
60719;BME280;46567;51.660;5.824;2023-05-01T16:30:51;129670.0;;;190.6;51.5
60719;BME280;46567;51.660;5.824;2023-05-01T16:35:51;129570.0;;;190.6;49.5
60719;BME280;46567;51.660;5.824;2023-05-01T16:40:51;129540.0;;;190.6;49.0
60719;BME280;46567;51.660;5.824;2023-05-01T16:45:51;129550.0;;;190.6;48.0
60719;BME280;46567;51.660;5.824;2023-05-01T16:50:51;129610.0;;;190.6;47.0
60719;BME280;46567;51.660;5.824;2023-05-01T16:55:51;129640.0;;;190.6;48.0
60719;BME280;46567;51.660;5.824;2023-05-01T17:00:51;129660.0;;;190.6;48.5
60719;BME280;46567;51.660;5.824;2023-05-01T17:05:51;129720.0;;;190.6;50.0
60719;BME280;46567;51.660;5.824;2023-05-01T17:10:51;129790.0;;;190.6;51.0
60719;BME280;46567;51.660;5.824;2023-05-01T17:15:51;129820.0;;;190.6;52.0
60719;BME280;46567;51.660;5.824;2023-05-01T17:20:51;129810.0;;;190.6;52.0
60719;BME280;46567;51.660;5.824;2023-05-01T17:25:51;129820.0;;;190.6;51.0
60719;BME280;46567;51.660;5.824;2023-05-01T17:30:51;129800.0;;;190.6;51.0
60719;BME280;46567;51.660;5.824;2023-05-01T17:35:51;129820.0;;;190.6;51.0
60719;BME280;46567;51.660;5.824;2023-05-01T17:40:51;129840.0;;;190.6;51.5
60719;BME280;46567;51.660;5.824;2023-05-01T17:45:51;129850.0;;;190.6;52.0
60719;BME280;46567;51.660;5.824;2023-05-01T17:50:51;129900.0;;;190.6;52.5
60719;BME280;46567;51.660;5.824;2023-05-01T17:55:51;129920.0;;;190.6;53.5
60719;BME280;46567;51.660;5.824;2023-05-01T18:00:51;129960.0;;;190.6;54.0
60719;BME280;46567;51.660;5.824;2023-05-01T18:05:51;130000.0;;;190.6;54.0
60719;BME280;46567;51.660;5.824;2023-05-01T18:10:51;130070.0;;;190.6;54.0
60719;BME280;46567;51.660;5.824;2023-05-01T18:15:51;130130.0;;;190.6;54.5
60719;BME280;46567;51.660;5.824;2023-05-01T18:20:51;130170.0;;;190.6;55.5
60719;BME280;46567;51.660;5.824;2023-05-01T18:25:52;130220.0;;;190.6;56.5
60719;BME280;46567;51.660;5.824;2023-05-01T18:30:51;130280.0;;;190.6;57.5
60719;BME280;46567;51.660;5.824;2023-05-01T18:35:51;130340.0;;;190.6;58.5
60719;BME280;46567;51.660;5.824;2023-05-01T18:40:51;130380.0;;;190.6;60.5
60719;BME280;46567;51.660;5.824;2023-05-01T18:45:51;130440.0;;;190.6;62.0
60719;BME280;46567;51.660;5.824;2023-05-01T18:50:51;130480.0;;;190.6;63.5
60719;BME280;46567;51.660;5.824;2023-05-01T18:55:51;130520.0;;;190.6;65.0
60719;BME280;46567;51.660;5.824;2023-05-01T19:00:53;130560.0;;;190.6;65.5
60719;BME280;46567;51.660;5.824;2023-05-01T19:05:51;130600.0;;;190.6;66.5
60719;BME280;46567;51.660;5.824;2023-05-01T19:10:51;130620.0;;;190.6;67.5
60719;BME280;46567;51.660;5.824;2023-05-01T19:15:51;130660.0;;;190.6;68.0
60719;BME280;46567;51.660;5.824;2023-05-01T19:20:51;130690.0;;;190.6;68.5
60719;BME280;46567;51.660;5.824;2023-05-01T19:25:51;130720.0;;;190.6;68.5
60719;BME280;46567;51.660;5.824;2023-05-01T19:30:51;130760.0;;;190.6;70.0
60719;BME280;46567;51.660;5.824;2023-05-01T19:35:51;130800.0;;;190.6;70.5
60719;BME280;46567;51.660;5.824;2023-05-01T19:40:51;130820.0;;;190.6;71.0
60719;BME280;46567;51.660;5.824;2023-05-01T19:45:51;130850.0;;;190.6;71.5
60719;BME280;46567;51.660;5.824;2023-05-01T19:50:51;130890.0;;;190.6;73.0
60719;BME280;46567;51.660;5.824;2023-05-01T19:55:51;130920.0;;;190.6;74.0
60719;BME280;46567;51.660;5.824;2023-05-01T20:00:51;130940.0;;;190.6;74.0
60719;BME280;46567;51.660;5.824;2023-05-01T20:05:51;130960.0;;;190.6;75.0
60719;BME280;46567;51.660;5.824;2023-05-01T20:10:51;131000.0;;;190.6;76.0
60719;BME280;46567;51.660;5.824;2023-05-01T20:15:51;131030.0;;;190.6;76.5
60719;BME280;46567;51.660;5.824;2023-05-01T20:20:51;131060.0;;;190.6;77.0
60719;BME280;46567;51.660;5.824;2023-05-01T20:25:51;131080.0;;;190.6;77.5
60719;BME280;46567;51.660;5.824;2023-05-01T20:30:51;131100.0;;;190.6;78.5
60719;BME280;46567;51.660;5.824;2023-05-01T20:35:51;131140.0;;;190.6;79.0
60719;BME280;46567;51.660;5.824;2023-05-01T20:40:51;131160.0;;;190.6;79.0
60719;BME280;46567;51.660;5.824;2023-05-01T20:45:51;131190.0;;;190.6;80.0
60719;BME280;46567;51.660;5.824;2023-05-01T20:50:51;131220.0;;;190.6;80.0
60719;BME280;46567;51.660;5.824;2023-05-01T20:55:51;131260.0;;;190.6;81.0
60719;BME280;46567;51.660;5.824;2023-05-01T21:00:53;131280.0;;;190.6;81.5
60719;BME280;46567;51.660;5.824;2023-05-01T21:05:56;131300.0;;;190.6;81.0
60719;BME280;46567;51.660;5.824;2023-05-01T21:10:51;131290.0;;;190.6;81.5
60719;BME280;46567;51.660;5.824;2023-05-01T21:15:51;131320.0;;;190.6;81.5
60719;BME280;46567;51.660;5.824;2023-05-01T21:20:51;131340.0;;;190.6;82.5
60719;BME280;46567;51.660;5.824;2023-05-01T21:25:52;131370.0;;;190.6;83.0
60719;BME280;46567;51.660;5.824;2023-05-01T21:30:52;131380.0;;;190.6;83.5
60719;BME280;46567;51.660;5.824;2023-05-01T21:35:51;131400.0;;;190.6;83.5
60719;BME280;46567;51.660;5.824;2023-05-01T21:40:51;131410.0;;;190.6;84.0
60719;BME280;46567;51.660;5.824;2023-05-01T21:45:51;131460.0;;;190.6;84.0
60719;BME280;46567;51.660;5.824;2023-05-01T21:50:51;131490.0;;;190.6;85.0
60719;BME280;46567;51.660;5.824;2023-05-01T21:55:51;131530.0;;;190.6;89.0
60719;BME280;46567;51.660;5.824;2023-05-01T22:00:51;131590.0;;;190.6;92.5
60719;BME280;46567;51.660;5.824;2023-05-01T22:05:51;131460.0;;;189.6;95.0
60719;BME280;46567;51.660;5.824;2023-05-01T22:10:51;131260.0;;;188.3;95.5
60719;BME280;46567;51.660;5.824;2023-05-01T22:15:51;131250.0;;;188.2;96.5
60719;BME280;46567;51.660;5.824;2023-05-01T22:20:52;131260.0;;;188.2;96.5
60719;BME280;46567;51.660;5.824;2023-05-01T22:25:51;131200.0;;;187.8;95.0
60719;BME280;46567;51.660;5.824;2023-05-01T22:30:51;131310.0;;;188.5;95.0
60719;BME280;46567;51.660;5.824;2023-05-01T22:35:51;131390.0;;;189.0;95.5
60719;BME280;46567;51.660;5.824;2023-05-01T22:40:51;131450.0;;;189.4;95.5
60719;BME280;46567;51.660;5.824;2023-05-01T22:45:51;131440.0;;;189.3;95.5
60719;BME280;46567;51.660;5.824;2023-05-01T22:50:51;131480.0;;;189.5;98.0
60719;BME280;46567;51.660;5.824;2023-05-01T22:55:51;131520.0;;;189.8;98.0
60719;BME280;46567;51.660;5.824;2023-05-01T23:00:51;131320.0;;;188.4;99.0
60719;BME280;46567;51.660;5.824;2023-05-01T23:05:51;131290.0;;;188.2;99.5
60719;BME280;46567;51.660;5.824;2023-05-01T23:10:51;131370.0;;;188.8;99.0
60719;BME280;46567;51.660;5.824;2023-05-01T23:15:52;131310.0;;;188.3;99.5
60719;BME280;46567;51.660;5.824;2023-05-01T23:20:51;131300.0;;;188.3;98.5
60719;BME280;46567;51.660;5.824;2023-05-01T23:25:53;131350.0;;;188.6;98.5
60719;BME280;46567;51.660;5.824;2023-05-01T23:30:53;131420.0;;;189.1;98.5
60719;BME280;46567;51.660;5.824;2023-05-01T23:35:52;131500.0;;;189.6;98.0
60719;BME280;46567;51.660;5.824;2023-05-01T23:40:51;131560.0;;;190.1;98.0
60719;BME280;46567;51.660;5.824;2023-05-01T23:45:51;131580.0;;;190.2;97.5
60719;BME280;46567;51.660;5.824;2023-05-01T23:50:52;131640.0;;;190.6;97.5
60719;BME280;46567;51.660;5.824;2023-05-01T23:55:52;131640.0;;;190.6;97.5
